< < Back
Terminal Aerodrome Forecast


Current Version              Previous Versions:   1  2  3  4  5  6  7  8  9  

Terminal Aerodrome Forecast

798
FTUS42 KCHS 020100 AAA
TAFSAV
TAF AMD
KSAV 020134Z 0202/0224 VRB03KT P6SM VCSH SCT020 BKN100
     FM020600 VRB03KT P6SM SCT012 OVC030
     FM020900 VRB03KT P6SM VCSH BKN012
      TEMPO 0209/0212 4SM BR OVC010
     FM021500 06006KT P6SM SCT020 BKN040
     FM021800 15007KT P6SM SCT020 BKN100=

Latest METAR

788
SAUS80 KWBC 020400
MTRSAV
METAR KSAV 020353Z 02004KT 9SM SCT038 BKN100 25/23 A3002 RMK AO2 SLP164
T02500233 $


USA.gov is the U.S. government's official web portal to all federal, state and local government web resources and services.